This is the latest recevied weather packets stored in our database for station/object DH5DY-13. If no packets are shown the sender has not sent any weather packets the latest 10 day(s).
| Time | Temp. | Humidity | Pressure | Rain* | Wind** | Luminosity | Snow |
|---|---|---|---|---|---|---|---|
| 1777577559 | 12.22° C | 46% | 1025.5 hPa | 0 mm | - | 0 W/m² | - |
| 1777576353 | 13.33° C | 41% | 1025.4 hPa | 0 mm | - | 0 W/m² | - |
| 1777575141 | 13.89° C | 36% | 1025.3 hPa | 0 mm | - | 5 W/m² | - |
| 1777573934 | 15° C | 33% | 1025 hPa | 0 mm | - | 11 W/m² | - |
| 1777571509 | 16.67° C | 29% | 1025 hPa | 0 mm | - | 77 W/m² | - |
| 1777496312 | 10° C | 42% | 1025.6 hPa | 0 mm | - | 0 W/m² | - |
| 1777495104 | 10° C | 43% | 1025.6 hPa | 0 mm | - | 0 W/m² | - |
| 1777492689 | 10° C | 45% | 1025.2 hPa | 0 mm | - | 0 W/m² | - |
| 1777491483 | 10.56° C | 41% | 1025 hPa | 0 mm | - | 0 W/m² | - |
| 1777490274 | 11.11° C | 38% | 1024.8 hPa | 0 mm | - | 0 W/m² | - |
| 1777489064 | 12.22° C | 35% | 1024.6 hPa | 0 mm | - | 0 W/m² | - |
| 1777487858 | 12.78° C | 32% | 1024.3 hPa | 0 mm | - | 9 W/m² | - |
| 1777486651 | 13.89° C | 32% | 1024.1 hPa | 0 mm | - | 32 W/m² | - |
| 1777485437 | 14.44° C | 31% | 1023.9 hPa | 0 mm | - | 70 W/m² | - |
| 1777484230 | 15° C | 29% | 1023.8 hPa | 0 mm | - | 123 W/m² | - |
| 1777409177 | 11.67° C | 46% | 1020.8 hPa | 0 mm | - | 0 W/m² | - |
| 1777407970 | 11.67° C | 46% | 1020.7 hPa | 0 mm | - | 0 W/m² | - |
| 1777406756 | 11.67° C | 52% | 1020.8 hPa | 0 mm | - | 0 W/m² | - |
| 1777405554 | 12.22° C | 48% | 1020.5 hPa | 0 mm | - | 0 W/m² | - |
| 1777404342 | 12.78° C | 46% | 1020.1 hPa | 0 mm | - | 0 W/m² | - |
| 1777403128 | 13.89° C | 42% | 1019.8 hPa | 0 mm | - | 0 W/m² | - |
| 1777401916 | 14.44° C | 41% | 1019.6 hPa | 0 mm | - | 7 W/m² | - |
| 1777400706 | 15° C | 40% | 1019.4 hPa | 0 mm | - | 14 W/m² | - |
| 1777399494 | 16.11° C | 40% | 1019 hPa | 0 mm | - | 44 W/m² | - |
| 1777398284 | 16.67° C | 38% | 1018.7 hPa | 0 mm | - | 88 W/m² | - |
* Rain latest hour (hover to see other rain measurements)
** Current wind speed in m/s (hover to see current wind gust speed)